Time;durP1;ratioP1;P1;durP2;ratioP2;P2;SDS_P1;SDS_P2;PMS_P1;PMS_P2;Temp;Humidity;BMP_temperature;BMP_pressure;BME280_temperature;BME280_humidity;BME280_pressure;Samples;Min_cycle;Max_cycle;Signal;HPM_P1;HPM_P2
2022/04/20 00:02:24;;;;;;;5.13;2.50;;;10.20;67.90;;;9.18;56.07;100538.50;5052271;28;20477;-73
2022/04/20 00:04:53;;;;;;;6.80;3.08;;;10.10;68.40;;;9.15;56.51;100536.13;5052411;28;20052;-74
2022/04/20 00:07:22;;;;;;;7.00;2.80;;;10.10;68.70;;;9.09;56.72;100539.53;5051717;28;20044;-74
2022/04/20 00:09:50;;;;;;;5.95;3.05;;;10.00;69.10;;;9.04;56.80;100534.63;5051775;28;20053;-74
2022/04/20 00:12:18;;;;;;;6.30;2.58;;;10.00;69.20;;;8.97;56.68;100537.19;5052131;28;20127;-74
2022/04/20 00:14:45;;;;;;;5.75;2.85;;;9.90;69.80;;;8.93;57.53;100530.44;5051966;28;20114;-74
2022/04/20 00:17:13;;;;;;;5.05;2.55;;;9.90;70.00;;;8.90;57.15;100532.63;5052756;28;20425;-74
2022/04/20 00:19:40;;;;;;;6.00;2.90;;;9.80;70.10;;;8.84;57.58;100531.47;5052474;28;20059;-74
2022/04/20 00:22:07;;;;;;;4.40;2.80;;;9.80;70.70;;;8.79;57.66;100531.13;5050686;28;20079;-73
2022/04/20 00:24:35;;;;;;;5.93;3.10;;;9.70;71.00;;;8.73;58.04;100526.38;5051405;28;20033;-74
2022/04/20 00:27:04;;;;;;;5.60;3.35;;;9.70;71.40;;;8.68;58.95;100526.91;5052924;28;20033;-74
2022/04/20 00:29:31;;;;;;;5.57;3.03;;;9.60;71.60;;;8.71;58.44;100533.84;5069167;28;20041;-74
2022/04/20 00:31:58;;;;;;;5.03;2.92;;;9.70;71.60;;;8.70;58.32;100529.44;5050337;28;20506;-74
2022/04/20 00:34:25;;;;;;;6.82;2.80;;;9.60;70.70;;;8.70;58.03;100540.28;5053579;28;20052;-73
2022/04/20 00:36:55;;;;;;;9.60;3.10;;;9.60;71.00;;;8.69;58.20;100538.63;5055489;28;20067;-74
2022/04/20 00:39:22;;;;;;;7.13;3.42;;;9.60;71.10;;;8.67;58.75;100535.22;5067249;28;20135;-74
2022/04/20 00:41:50;;;;;;;6.50;2.92;;;9.60;71.30;;;8.59;59.31;100541.50;5051328;28;20048;-74
2022/04/20 00:44:20;;;;;;;4.93;2.75;;;9.50;72.00;;;8.52;59.72;100538.63;5051985;28;20087;-73
2022/04/20 00:46:48;;;;;;;5.80;3.00;;;9.40;72.50;;;8.48;59.43;100539.97;5067092;28;20151;-74
2022/04/20 00:49:17;;;;;;;7.03;2.80;;;9.40;72.50;;;8.44;59.78;100535.09;5031846;28;20136;-74
2022/04/20 00:51:57;;;;;;;6.97;3.33;;;9.30;72.80;;;8.36;60.54;100535.91;5031596;28;20048;-73
2022/04/20 00:54:26;;;;;;;9.75;3.40;;;9.30;72.90;;;8.29;60.47;100548.44;5052708;28;20039;-74
2022/04/20 00:56:53;;;;;;;6.78;3.00;;;9.20;73.50;;;8.22;60.51;100546.41;5049995;28;20048;-74
2022/04/20 00:59:26;;;;;;;7.53;3.05;;;9.20;73.70;;;8.18;61.25;100547.72;5066771;28;20048;-74
2022/04/20 01:01:54;;;;;;;6.18;3.17;;;9.10;74.10;;;8.15;61.40;100539.13;5068964;28;20151;-74
2022/04/20 01:04:22;;;;;;;6.07;3.10;;;9.10;74.30;;;8.12;61.69;100551.13;5050187;28;20491;-74
2022/04/20 01:07:22;;;;;;;7.07;3.20;;;9.10;74.30;;;8.07;62.04;100545.34;5039140;28;20044;-74
2022/04/20 01:10:09;;;;;;;5.65;3.10;;;9.00;74.70;;;8.01;62.13;100552.31;5050629;28;20175;-74
2022/04/20 01:12:46;;;;;;;5.95;3.20;;;8.90;75.30;;;7.97;62.70;100550.09;5060409;28;20126;-73
2022/04/20 01:15:20;;;;;;;7.03;3.40;;;8.90;75.60;;;7.92;63.27;100547.03;5051482;28;20060;-73
2022/04/20 01:18:14;;;;;;;6.15;3.45;;;8.80;76.20;;;7.86;62.92;100539.56;5050497;28;20080;-74
2022/04/20 01:20:52;;;;;;;6.40;3.15;;;8.80;76.00;;;7.86;63.70;100548.53;5072959;28;20135;-74
2022/04/20 01:23:45;;;;;;;7.90;3.13;;;8.70;76.50;;;7.82;64.36;100550.75;5049701;28;20473;-74
2022/04/20 01:26:13;;;;;;;7.35;3.28;;;8.70;76.50;;;7.78;64.32;100546.66;5049189;28;20049;-74
2022/04/20 01:28:56;;;;;;;7.55;3.45;;;8.70;76.80;;;7.75;65.06;100547.00;5042794;28;20449;-74
2022/04/20 01:31:43;;;;;;;8.07;3.28;;;8.70;77.30;;;7.70;64.63;100551.22;5049892;28;20457;-74
2022/04/20 01:34:18;;;;;;;7.38;3.20;;;8.60;77.50;;;7.64;65.08;100545.44;5048676;28;20522;-74
2022/04/20 01:36:46;;;;;;;8.32;3.30;;;8.60;77.70;;;7.61;65.74;100551.16;5049178;28;20131;-74
2022/04/20 01:39:15;;;;;;;8.98;3.45;;;8.60;77.90;;;7.56;65.42;100548.13;5048944;28;20049;-75
2022/04/20 01:41:42;;;;;;;6.35;3.00;;;8.50;78.20;;;7.55;65.77;100545.59;5054770;28;20044;-74
2022/04/20 01:44:10;;;;;;;5.90;3.05;;;8.50;78.30;;;7.51;65.82;100547.75;5046744;28;20075;-74
2022/04/20 01:47:00;;;;;;;7.88;3.42;;;8.50;78.50;;;7.46;66.10;100550.09;5066116;28;20056;-74
2022/04/20 01:49:48;;;;;;;10.70;3.45;;;8.40;79.00;;;7.44;66.78;100544.88;5048787;28;20079;-74
2022/04/20 01:52:39;;;;;;;8.15;3.05;;;8.30;79.00;;;7.39;67.23;100554.50;5049877;28;20041;-74
2022/04/20 01:55:29;;;;;;;5.78;3.30;;;8.30;79.20;;;7.30;67.67;100542.78;5045754;28;20057;-73
2022/04/20 01:58:25;;;;;;;7.43;3.53;;;8.20;79.50;;;7.30;67.44;100544.66;5043955;28;20049;-73
2022/04/20 02:03:57;;;;;;;6.88;3.75;;;8.20;79.40;;;7.27;67.56;100548.50;5048713;28;20049;-74
2022/04/20 02:06:25;;;;;;;9.70;3.35;;;8.20;79.60;;;7.24;67.80;100552.41;5065139;28;20045;-73
2022/04/20 02:09:05;;;;;;;5.80;3.35;;;8.20;80.00;;;7.23;68.00;100552.56;5048781;28;20122;-74
2022/04/20 02:11:51;;;;;;;7.93;3.83;;;8.20;79.80;;;7.20;68.09;100550.19;5034187;28;20048;-74
2022/04/20 02:14:37;;;;;;;6.47;3.30;;;8.20;80.00;;;7.17;68.02;100555.91;5065643;28;20044;-73
2022/04/20 02:17:17;;;;;;;9.10;3.88;;;8.10;79.90;;;7.16;68.14;100562.31;5063971;28;20059;-73
2022/04/20 02:19:51;;;;;;;6.63;3.80;;;8.10;80.00;;;7.10;68.07;100555.72;5041090;28;20083;-74
2022/04/20 02:22:21;;;;;;;6.40;3.70;;;8.00;80.10;;;7.07;68.59;100557.91;5047996;28;20136;-73
2022/04/20 02:24:50;;;;;;;5.50;3.15;;;8.00;80.50;;;7.05;68.57;100552.66;5048444;28;20296;-73
2022/04/20 02:27:17;;;;;;;6.85;3.53;;;8.00;80.60;;;7.03;69.13;100552.81;5052477;28;20464;-74
2022/04/20 02:29:44;;;;;;;5.93;3.53;;;7.90;80.90;;;7.00;68.92;100549.56;5030901;28;20057;-73
2022/04/20 02:32:12;;;;;;;9.07;3.28;;;7.90;80.80;;;7.01;68.95;100554.81;5048090;28;20056;-74
2022/04/20 02:34:39;;;;;;;7.20;3.65;;;7.90;80.80;;;6.97;68.85;100558.84;5047762;28;20489;-73
2022/04/20 02:37:06;;;;;;;6.90;3.92;;;7.90;80.80;;;6.95;69.80;100550.06;5052875;28;20045;-74
2022/04/20 02:39:35;;;;;;;8.38;3.50;;;7.90;81.10;;;6.91;69.54;100559.50;5048192;28;20069;-73
2022/04/20 02:42:08;;;;;;;7.80;3.97;;;7.80;81.10;;;6.87;69.61;100560.81;5047328;28;20532;-73
2022/04/20 02:44:36;;;;;;;8.20;3.50;;;7.80;81.60;;;6.83;70.50;100557.59;5047655;28;20573;-74
2022/04/20 02:47:04;;;;;;;7.50;3.58;;;7.80;82.00;;;6.80;70.44;100557.06;5049253;28;20510;-73
2022/04/20 02:49:32;;;;;;;8.80;4.53;;;7.70;82.30;;;6.77;70.20;100563.63;5049119;28;20410;-74
2022/04/20 02:51:59;;;;;;;7.18;3.58;;;7.70;82.30;;;6.75;70.70;100568.34;5066824;28;20052;-74
2022/04/20 02:54:30;;;;;;;7.22;3.60;;;7.60;82.30;;;6.74;70.65;100557.69;5047955;28;20477;-74
2022/04/20 02:56:58;;;;;;;7.15;3.75;;;7.70;82.50;;;6.73;70.43;100556.00;5048173;28;20044;-74
2022/04/20 02:59:26;;;;;;;10.30;3.70;;;7.70;82.60;;;6.71;71.04;100561.56;5047879;28;20072;-74
2022/04/20 03:01:56;;;;;;;7.05;3.67;;;7.70;82.70;;;6.69;71.09;100565.44;5048096;28;20507;-73
2022/04/20 03:04:23;;;;;;;6.85;3.70;;;7.60;82.70;;;6.68;71.01;100563.72;5048013;28;20037;-74
2022/04/20 03:06:50;;;;;;;7.03;3.67;;;7.70;83.00;;;6.62;71.41;100557.94;5048288;28;20130;-73
2022/04/20 03:09:28;;;;;;;7.65;3.90;;;7.60;82.90;;;6.60;71.32;100562.66;5059284;23;20057;-75
2022/04/20 03:11:55;;;;;;;9.15;4.00;;;7.50;82.90;;;6.56;71.69;100558.56;5039864;28;20045;-75
2022/04/20 03:14:22;;;;;;;7.50;3.60;;;7.50;83.00;;;6.52;71.61;100559.91;5050559;28;20045;-75
2022/04/20 03:16:57;;;;;;;8.98;3.88;;;7.50;83.10;;;6.50;71.98;100561.06;5049422;28;20040;-75
2022/04/20 03:19:24;;;;;;;8.52;4.40;;;7.40;83.50;;;6.42;72.42;100562.69;5047797;28;20072;-75
2022/04/20 03:21:51;;;;;;;6.20;3.97;;;7.30;84.10;;;6.40;73.34;100567.41;5045515;28;20051;-75
2022/04/20 03:24:20;;;;;;;8.18;4.32;;;7.30;84.90;;;6.36;73.53;100566.03;5051331;28;20079;-75
2022/04/20 03:27:17;;;;;;;7.95;3.70;;;7.30;85.10;;;6.33;74.04;100569.03;5043992;28;20048;-75
2022/04/20 03:29:55;;;;;;;6.35;3.63;;;7.20;85.10;;;6.28;74.13;100565.09;5049308;28;20049;-75
2022/04/20 03:32:24;;;;;;;9.25;4.22;;;7.20;85.40;;;6.25;73.94;100571.69;5063840;28;20045;-75
2022/04/20 03:34:52;;;;;;;8.77;4.43;;;7.10;85.30;;;6.22;74.42;100564.72;5048412;28;20483;-75
2022/04/20 03:37:20;;;;;;;7.00;4.00;;;7.10;85.40;;;6.20;74.14;100573.97;5045590;28;20120;-75
2022/04/20 03:39:47;;;;;;;6.68;4.05;;;7.10;85.50;;;6.17;74.20;100569.75;5028038;28;20053;-75
2022/04/20 03:42:14;;;;;;;6.57;3.60;;;7.20;85.60;;;6.13;74.46;100572.91;5032204;28;20037;-75
2022/04/20 03:44:41;;;;;;;7.53;4.20;;;7.00;85.60;;;6.11;75.02;100569.50;5064325;28;20065;-76
2022/04/20 03:47:09;;;;;;;8.40;4.22;;;7.00;85.80;;;6.10;74.85;100576.78;5066770;28;20069;-76
2022/04/20 03:49:37;;;;;;;8.23;4.40;;;7.00;86.10;;;6.07;75.52;100585.16;5048780;28;20049;-75
2022/04/20 03:52:07;;;;;;;7.88;4.18;;;7.00;86.40;;;6.01;75.97;100577.69;5029223;28;20048;-75
2022/04/20 03:54:36;;;;;;;7.55;4.40;;;6.90;87.30;;;5.97;76.82;100576.28;5044406;28;20096;-76
2022/04/20 03:57:07;;;;;;;9.32;4.45;;;6.90;87.80;;;5.97;77.60;100576.28;5062720;28;20064;-75
2022/04/20 03:59:41;;;;;;;9.60;4.40;;;6.90;88.30;;;5.93;77.02;100580.28;5064543;28;20410;-75
2022/04/20 04:02:09;;;;;;;7.22;4.03;;;6.90;87.80;;;5.91;77.43;100587.69;5050035;28;20048;-75
2022/04/20 04:04:46;;;;;;;8.32;4.28;;;6.80;87.60;;;5.85;76.77;100592.69;5051103;28;20039;-75
2022/04/20 04:07:26;;;;;;;7.32;4.40;;;6.80;87.50;;;5.83;76.77;100586.59;5051119;28;20438;-75
2022/04/20 04:09:54;;;;;;;9.55;4.40;;;6.70;87.60;;;5.77;77.44;100584.50;5068693;28;20774;-76
2022/04/20 04:12:25;;;;;;;8.40;4.28;;;6.70;88.30;;;5.72;78.37;100586.81;5071940;28;20073;-76
2022/04/20 04:14:55;;;;;;;8.02;4.22;;;6.70;89.00;;;5.68;78.63;100590.81;5050917;28;20037;-76
2022/04/20 04:17:23;;;;;;;8.25;4.47;;;6.60;89.30;;;5.66;78.89;100595.50;5051113;28;20049;-76
2022/04/20 04:19:51;;;;;;;10.90;4.47;;;6.60;89.40;;;5.62;79.35;100600.34;5049442;28;20064;-76
2022/04/20 04:22:19;;;;;;;6.72;4.18;;;6.60;89.70;;;5.61;79.22;100603.22;5067201;28;20045;-77
2022/04/20 04:25:07;;;;;;;9.77;4.60;;;6.60;89.50;;;5.58;79.36;100603.50;5051006;28;20122;-75
2022/04/20 04:27:35;;;;;;;9.32;4.40;;;6.60;89.70;;;5.57;80.02;100601.81;5066925;28;20068;-80
2022/04/20 04:30:02;;;;;;;9.75;4.53;;;6.60;90.00;;;5.54;80.21;100602.09;5059438;28;20422;-78
2022/04/20 04:32:32;;;;;;;7.40;4.03;;;6.50;90.40;;;5.51;80.35;100614.06;5050560;28;20501;-78
2022/04/20 04:35:01;;;;;;;9.15;4.53;;;6.40;90.20;;;5.48;80.10;100612.50;5049396;28;20037;-79
2022/04/20 04:37:30;;;;;;;7.80;4.35;;;6.40;90.20;;;5.48;80.00;100615.22;5067396;28;20057;-79
2022/04/20 04:40:06;;;;;;;9.93;4.90;;;6.40;90.20;;;5.49;79.97;100610.66;5050383;28;20055;-79
2022/04/20 04:42:34;;;;;;;9.27;4.65;;;6.40;90.00;;;5.46;80.97;100617.22;5066812;28;20049;-79
2022/04/20 04:50:33;;;;;;;6.63;3.97;;;6.40;91.20;;;5.48;81.46;100612.50;5067180;28;20072;-79
2022/04/20 04:53:02;;;;;;;10.57;4.40;;;6.40;91.20;;;5.49;81.76;100627.69;5066817;28;20056;-79
2022/04/20 04:55:30;;;;;;;8.50;4.20;;;6.40;91.20;;;5.51;82.06;100624.84;5032576;28;20300;-79
2022/04/20 04:57:57;;;;;;;7.32;3.80;;;6.50;91.60;;;5.52;82.63;100625.69;5045579;28;20776;-79
2022/04/20 05:00:25;;;;;;;7.70;4.15;;;6.50;92.10;;;5.52;82.69;100621.16;5065869;28;20037;-79
2022/04/20 05:03:05;;;;;;;9.60;5.07;;;6.50;92.20;;;5.52;82.79;100626.56;5049507;28;20041;-79
2022/04/20 05:05:34;;;;;;;7.10;4.30;;;6.50;92.10;;;5.53;82.78;100625.56;5050367;28;20045;-79
2022/04/20 05:08:02;;;;;;;8.32;4.65;;;6.50;91.90;;;5.57;82.71;100618.84;5068724;28;20045;-78
2022/04/20 05:10:31;;;;;;;9.88;4.35;;;6.60;91.80;;;5.64;82.65;100629.91;5049818;28;20098;-79
2022/04/20 05:13:00;;;;;;;9.98;4.75;;;6.60;91.70;;;5.72;82.65;100624.59;5049217;28;20044;-79
2022/04/20 05:15:30;;;;;;;8.25;4.40;;;6.70;91.50;;;5.78;82.62;100624.00;5066814;28;20071;-79
2022/04/20 05:17:58;;;;;;;11.13;4.40;;;6.80;91.20;;;5.84;82.65;100623.38;5066490;28;20132;-79
2022/04/20 05:20:25;;;;;;;9.95;4.80;;;6.90;91.30;;;5.91;82.12;100630.91;5053103;28;20533;-79
2022/04/20 05:22:54;;;;;;;11.05;4.65;;;6.90;90.60;;;6.02;82.13;100625.31;5069812;28;20456;-79
2022/04/20 05:25:23;;;;;;;12.63;4.47;;;7.10;90.70;;;6.14;81.50;100624.09;5049743;28;20414;-79
2022/04/20 05:27:51;;;;;;;12.45;5.05;;;7.20;90.20;;;6.22;81.33;100624.16;5049991;28;20087;-85
2022/04/20 05:30:25;;;;;;;10.40;5.18;;;7.30;90.20;;;6.31;82.32;100627.81;5066269;28;20502;-83
2022/04/20 05:32:52;;;;;;;9.27;4.45;;;7.40;91.40;;;6.39;82.38;100618.91;5065237;28;20049;-85
2022/04/20 05:35:23;;;;;;;10.85;5.20;;;7.50;91.10;;;6.46;82.41;100620.84;5047009;28;20044;-85
2022/04/20 05:43:40;;;;;;;8.68;4.63;;;7.70;90.00;;;6.77;81.38;100622.28;5065701;28;20049;-84
2022/04/20 05:46:07;;;;;;;12.68;5.22;;;7.90;89.30;;;6.84;80.28;100612.53;5049332;28;20138;-83
2022/04/20 05:48:51;;;;;;;13.82;5.10;;;8.00;89.20;;;6.93;80.41;100619.72;5062469;28;20049;-83
2022/04/20 05:51:18;;;;;;;13.15;5.47;;;8.10;88.60;;;7.04;80.32;100622.16;5048765;28;20135;-83
2022/04/20 05:53:46;;;;;;;11.02;4.72;;;8.20;88.80;;;7.13;78.67;100611.38;5043157;28;20091;-83
2022/04/20 05:56:16;;;;;;;9.63;4.85;;;8.30;87.20;;;7.24;78.00;100622.78;5048621;28;20073;-83
2022/04/20 05:58:47;;;;;;;10.07;5.45;;;8.40;86.50;;;7.34;76.89;100622.66;5054833;28;20152;-83
2022/04/20 06:01:16;;;;;;;11.32;5.32;;;8.50;85.80;;;7.44;76.61;100619.81;5049215;28;20049;-83
2022/04/20 06:03:55;;;;;;;9.07;5.03;;;8.60;85.00;;;7.55;76.00;100613.28;5048735;28;20041;-83
2022/04/20 06:06:35;;;;;;;9.30;5.05;;;8.70;84.90;;;7.63;75.63;100611.47;5065861;28;20498;-83
2022/04/20 06:09:11;;;;;;;12.60;5.50;;;8.80;84.50;;;7.70;74.06;100614.38;5048897;28;20044;-83
2022/04/20 06:11:46;;;;;;;13.48;5.40;;;9.00;82.90;;;7.78;73.03;100608.97;5050344;28;20177;-83
2022/04/20 06:14:20;;;;;;;14.00;5.97;;;9.00;81.70;;;7.88;71.89;100613.41;5047019;28;20045;-83
2022/04/20 06:16:56;;;;;;;9.88;5.03;;;9.10;81.40;;;7.95;72.89;100611.75;5065737;28;20080;-83
2022/04/20 06:19:31;;;;;;;15.90;5.50;;;9.20;81.60;;;8.07;71.87;100618.53;5039986;28;20107;-83
2022/04/20 06:22:09;;;;;;;13.80;5.30;;;9.40;81.20;;;8.14;70.81;100608.72;5055961;28;20529;-77
2022/04/20 06:24:57;;;;;;;16.02;5.82;;;9.40;80.50;;;8.19;70.99;100611.78;5060575;28;20522;-77
2022/04/20 06:27:38;;;;;;;13.77;5.90;;;9.50;80.20;;;8.23;71.29;100610.44;5047944;28;20048;-79
2022/04/20 06:30:25;;;;;;;13.00;5.45;;;9.50;80.90;;;8.40;70.21;100610.47;5044677;28;20160;-79
2022/04/20 06:33:06;;;;;;;9.82;5.60;;;9.90;79.00;;;8.63;70.08;100610.69;5057686;28;20413;-78
2022/04/20 06:35:53;;;;;;;10.50;5.53;;;10.50;77.30;;;8.84;68.58;100618.31;5049188;28;20576;-78
2022/04/20 06:38:39;;;;;;;11.60;5.03;;;10.90;75.50;;;9.05;68.73;100616.94;5049231;28;20568;-79
2022/04/20 06:41:25;;;;;;;11.90;5.22;;;11.10;74.80;;;9.24;65.88;100616.53;5047584;28;20564;-79
2022/04/20 06:44:13;;;;;;;10.55;5.10;;;11.30;73.10;;;9.42;65.08;100618.19;5053999;28;20128;-79
2022/04/20 06:46:41;;;;;;;10.63;5.15;;;11.40;72.80;;;9.51;65.37;100619.84;5047850;28;20136;-79
2022/04/20 06:49:17;;;;;;;7.60;4.95;;;11.40;73.00;;;9.65;64.86;100624.53;5047679;28;20072;-79
2022/04/20 07:00:25;;;;;;;9.07;5.30;;;11.40;74.20;;;10.00;63.93;100616.94;4998508;28;20152;-79
2022/04/20 07:03:03;;;;;;;24.55;5.88;;;11.50;73.30;;;10.10;63.92;100613.97;5051484;28;20064;-79
2022/04/20 07:05:49;;;;;;;11.13;5.25;;;11.50;73.80;;;10.14;62.84;100612.59;5049465;28;20576;-79
2022/04/20 07:08:36;;;;;;;9.20;5.28;;;11.50;72.50;;;10.20;62.56;100613.75;5049477;28;20056;-78
2022/04/20 07:11:15;;;;;;;11.45;5.10;;;11.50;72.90;;;10.27;62.83;100614.72;5062943;28;20140;-78
2022/04/20 07:13:46;;;;;;;10.57;5.33;;;11.60;72.70;;;10.30;61.39;100608.91;5064606;28;20466;-77
2022/04/20 07:16:15;;;;;;;9.77;4.88;;;11.60;71.10;;;10.41;61.57;100615.84;5062457;28;20323;-78
2022/04/20 07:18:46;;;;;;;10.23;4.80;;;11.70;72.40;;;10.52;61.30;100610.81;5065673;28;20049;-78
2022/04/20 07:21:32;;;;;;;9.77;4.65;;;11.80;72.90;;;10.60;60.28;100609.91;5048640;28;20556;-78
2022/04/20 07:24:23;;;;;;;9.73;4.45;;;11.90;69.90;;;10.69;59.51;100614.25;5047292;28;20077;-78
2022/04/20 07:27:11;;;;;;;8.35;4.50;;;12.00;70.80;;;10.79;59.78;100619.44;5046129;28;20059;-78
2022/04/20 07:29:38;;;;;;;10.52;4.40;;;12.10;70.30;;;10.85;59.05;100610.56;5046951;28;20045;-78
2022/04/20 07:32:08;;;;;;;9.15;4.75;;;12.10;69.20;;;10.98;59.67;100609.91;5048780;28;20037;-78
2022/04/20 07:34:54;;;;;;;10.18;4.90;;;12.20;70.90;;;11.11;60.80;100615.56;5052988;28;20138;-78
2022/04/20 07:37:48;;;;;;;10.23;4.50;;;12.30;71.30;;;11.19;58.74;100620.09;5031747;28;20459;-78
2022/04/20 07:40:38;;;;;;;8.35;4.20;;;12.40;68.80;;;11.23;57.21;100615.13;5043387;28;20132;-78
2022/04/20 07:43:24;;;;;;;6.30;3.97;;;12.50;68.60;;;11.29;56.79;100615.22;5053081;28;20059;-77
2022/04/20 07:46:16;;;;;;;10.85;4.85;;;12.60;67.20;;;11.35;56.12;100622.66;5055176;28;20049;-76
2022/04/20 07:48:55;;;;;;;9.10;4.10;;;12.60;66.00;;;11.37;56.35;100617.00;5034876;28;20067;-77
2022/04/20 07:51:42;;;;;;;8.18;4.05;;;12.60;66.70;;;11.48;56.13;100618.41;5044386;28;20056;-78
2022/04/20 07:54:44;;;;;;;8.20;4.03;;;12.70;66.10;;;11.54;55.64;100620.41;5042151;28;20052;-77
2022/04/20 07:57:27;;;;;;;12.18;4.07;;;12.70;65.70;;;11.56;55.27;100621.06;5055180;28;20510;-77
2022/04/20 08:00:13;;;;;;;8.70;3.92;;;12.70;66.00;;;11.67;55.71;100617.84;5044942;28;20502;-77
2022/04/20 08:02:44;;;;;;;13.35;4.32;;;12.90;66.30;;;11.83;56.19;100621.41;5064512;28;20128;-77
2022/04/20 08:05:21;;;;;;;9.32;3.83;;;13.00;66.70;;;11.93;56.37;100619.25;5051093;28;20144;-78
2022/04/20 08:07:49;;;;;;;7.00;3.70;;;13.10;67.00;;;11.99;54.40;100621.19;5052768;28;20045;-77
2022/04/20 08:10:16;;;;;;;8.27;3.63;;;13.20;65.00;;;12.16;54.90;100615.53;5049435;28;20131;-78
2022/04/20 08:12:45;;;;;;;5.68;3.47;;;13.30;65.10;;;12.22;54.02;100617.47;5050792;28;20036;-78
2022/04/20 08:15:22;;;;;;;8.05;3.95;;;13.40;64.20;;;12.26;53.10;100621.50;5059078;28;20037;-78
2022/04/20 08:17:52;;;;;;;8.77;3.33;;;13.50;63.50;;;12.39;54.25;100620.81;5071222;28;20465;-78
2022/04/20 08:20:39;;;;;;;8.98;3.90;;;13.60;64.20;;;12.48;54.85;100623.22;5049717;28;20063;-75
2022/04/20 08:23:08;;;;;;;10.77;3.70;;;13.70;65.20;;;12.62;54.31;100626.94;5067494;28;20049;-75
2022/04/20 08:25:35;;;;;;;7.80;3.85;;;13.80;64.50;;;12.64;51.60;100629.47;5053801;28;20049;-74
2022/04/20 08:28:03;;;;;;;7.70;3.95;;;13.90;61.80;;;12.71;52.72;100631.22;5052198;28;20037;-73
2022/04/20 08:30:30;;;;;;;8.88;3.75;;;13.90;62.50;;;12.79;53.92;100622.03;5044837;28;20045;-73
2022/04/20 08:32:57;;;;;;;7.63;3.45;;;14.00;63.80;;;12.85;52.80;100629.47;5044860;28;20045;-73
2022/04/20 08:35:25;;;;;;;7.05;3.70;;;14.10;63.30;;;12.87;51.84;100627.38;5051845;28;20068;-73
2022/04/20 08:37:53;;;;;;;7.40;3.40;;;14.10;61.20;;;12.88;51.59;100630.94;5053893;28;20051;-74
2022/04/20 08:40:21;;;;;;;6.18;3.53;;;14.10;61.50;;;12.96;51.85;100627.22;5051401;28;20072;-74
2022/04/20 08:42:52;;;;;;;8.52;3.97;;;14.20;61.80;;;13.06;52.68;100624.97;5057070;28;20037;-73
2022/04/20 08:45:21;;;;;;;6.97;3.88;;;14.30;62.70;;;13.15;51.70;100629.25;5041434;28;20128;-74
2022/04/20 08:47:51;;;;;;;8.38;3.38;;;14.40;62.60;;;13.20;49.79;100617.75;5051679;28;20118;-74
2022/04/20 08:50:18;;;;;;;8.60;3.25;;;14.40;60.50;;;13.15;48.10;100617.50;5051224;28;20040;-73
2022/04/20 08:52:49;;;;;;;5.65;3.30;;;14.40;56.60;;;13.06;47.69;100622.25;5052738;28;20106;-73
2022/04/20 08:55:19;;;;;;;9.77;3.88;;;14.30;56.90;;;13.05;48.79;100617.84;5052925;28;20111;-73
2022/04/20 08:57:49;;;;;;;7.45;3.53;;;14.30;58.20;;;13.10;49.31;100623.56;5047668;28;20044;-73
2022/04/20 09:00:21;;;;;;;6.80;4.15;;;14.30;58.80;;;13.08;48.85;100612.00;5056671;28;20112;-73
2022/04/20 09:02:52;;;;;;;7.20;3.83;;;14.30;58.20;;;13.08;48.35;100603.81;5066564;28;20053;-73
2022/04/20 09:05:20;;;;;;;9.53;4.20;;;14.30;58.10;;;13.16;51.00;100611.84;5053889;28;20499;-73
2022/04/20 09:07:48;;;;;;;11.63;4.30;;;14.40;60.90;;;13.22;49.63;100610.19;5051611;28;20045;-73
2022/04/20 09:10:17;;;;;;;7.72;3.47;;;14.40;60.00;;;13.26;50.98;100604.13;5050762;28;20259;-73
2022/04/20 09:12:46;;;;;;;6.43;3.60;;;14.50;60.30;;;13.30;49.12;100599.97;5051916;28;20047;-73
2022/04/20 09:15:28;;;;;;;5.93;3.30;;;14.60;58.00;;;13.34;49.15;100607.78;5052386;28;20068;-73
2022/04/20 09:17:57;;;;;;;6.40;2.50;;;14.60;58.30;;;13.40;46.59;100598.78;5064728;28;20097;-73
2022/04/20 09:20:25;;;;;;;6.57;2.42;;;14.70;55.90;;;13.35;45.78;100593.91;5048408;28;20560;-73
2022/04/20 09:23:01;;;;;;;6.70;2.53;;;14.60;54.90;;;13.29;45.05;100597.44;5057211;28;20049;-76
2022/04/20 09:25:34;;;;;;;4.65;2.10;;;14.50;53.80;;;13.29;45.38;100595.53;5054301;28;20064;-77
2022/04/20 09:28:02;;;;;;;4.45;2.42;;;14.50;55.10;;;13.34;45.29;100596.84;5048578;28;20048;-77
2022/04/20 09:30:34;;;;;;;6.47;2.35;;;14.60;54.50;;;13.46;47.47;100592.50;5050014;28;20780;-77
2022/04/20 09:33:06;;;;;;;7.03;2.50;;;14.70;56.50;;;13.50;47.02;100580.13;5050915;28;20071;-77
2022/04/20 09:35:42;;;;;;;5.75;2.25;;;14.80;56.50;;;13.56;47.08;100581.22;5049173;28;20040;-77
2022/04/20 09:38:12;;;;;;;7.43;2.80;;;14.80;56.40;;;13.53;45.16;100579.69;5051258;28;20051;-77
2022/04/20 09:41:09;;;;;;;7.35;2.65;;;14.90;55.10;;;13.54;45.87;100586.88;5050609;28;20142;-86
2022/04/20 09:43:37;;;;;;;6.03;2.63;;;14.80;54.80;;;13.54;45.30;100581.41;5049303;28;20057;-76
2022/04/20 09:48:50;;;;;;;7.68;2.67;;;14.90;55.20;;;13.53;44.78;100585.19;5050970;28;20040;-77
2022/04/20 09:48:52;;;;;;;6.38;2.90;;;14.80;53.80;;;13.51;44.52;100570.03;5049821;28;20053;-76
2022/04/20 09:51:20;;;;;;;4.55;2.50;;;14.70;54.60;;;13.48;44.47;100571.28;5050043;28;20044;-76
2022/04/20 09:53:50;;;;;;;4.78;2.53;;;14.70;54.00;;;13.47;43.82;100583.25;5050152;28;20506;-75
2022/04/20 09:56:21;;;;;;;7.65;2.85;;;14.70;53.60;;;13.48;43.80;100565.81;5049827;28;20036;-75
2022/04/20 09:58:59;;;;;;;5.97;2.67;;;14.70;53.60;;;13.53;44.67;100565.19;5049985;28;20115;-76
2022/04/20 10:01:31;;;;;;;13.07;2.80;;;14.80;54.50;;;13.53;44.98;100568.75;5050652;28;20095;-75
2022/04/20 10:04:00;;;;;;;6.20;2.70;;;14.80;54.70;;;13.54;44.49;100569.63;5076643;28;20052;-75
2022/04/20 10:06:28;;;;;;;6.90;2.60;;;14.80;54.30;;;13.54;44.11;100566.91;5055153;28;20043;-75
2022/04/20 10:08:55;;;;;;;5.45;2.78;;;14.80;53.60;;;13.59;45.08;100556.19;5049883;28;20091;-75
2022/04/20 10:11:24;;;;;;;6.88;2.95;;;14.90;55.30;;;13.64;45.12;100554.53;5050035;28;20045;-76
2022/04/20 10:16:45;;;;;;;6.47;2.92;;;14.90;54.40;;;13.64;44.51;100553.69;5049956;28;20132;-75
2022/04/20 10:19:14;;;;;;;10.70;2.92;;;14.90;54.10;;;13.63;44.29;100547.38;5048882;28;20680;-76
2022/04/20 10:21:49;;;;;;;5.57;3.20;;;14.90;54.40;;;13.75;45.65;100539.41;5059876;28;20106;-75
2022/04/20 10:24:20;;;;;;;6.80;3.25;;;15.00;55.00;;;13.75;44.22;100538.59;5050327;28;20564;-78
2022/04/20 10:26:49;;;;;;;;;;;15.00;54.00;;;13.77;44.66;100531.84;5049164;28;20080;-79
2022/04/20 10:29:26;;;;;;;5.47;3.13;;;15.10;54.10;;;13.80;43.17;100536.06;5048063;28;19986;-78
2022/04/20 10:32:05;;;;;;;7.13;2.53;;;15.10;52.80;;;13.77;43.52;100534.59;5048839;28;20041;-78
2022/04/20 10:34:34;;;;;;;4.32;2.65;;;15.10;53.60;;;13.78;44.18;100529.94;5047230;28;20049;-78
2022/04/20 10:37:28;;;;;;;6.72;3.08;;;15.10;53.80;;;13.75;42.73;100524.91;5049640;28;20053;-78
2022/04/20 10:40:16;;;;;;;5.38;2.88;;;15.10;51.80;;;13.77;44.14;100531.03;5041923;28;20457;-78
2022/04/20 10:43:18;;;;;;;10.45;2.83;;;15.10;53.70;;;13.82;43.16;100523.00;5048291;28;20052;-78
2022/04/20 10:46:05;;;;;;;9.23;2.88;;;15.10;52.50;;;13.78;42.78;100521.75;5051028;28;20121;-78
2022/04/20 10:48:53;;;;;;;6.15;2.78;;;15.10;52.30;;;13.80;43.13;100516.91;5049018;28;20049;-78
2022/04/20 10:51:23;;;;;;;10.05;2.78;;;15.10;52.50;;;13.80;42.67;100508.69;5049550;28;20032;-78
2022/04/20 10:53:53;;;;;;;5.50;2.55;;;15.10;52.60;;;13.81;42.81;100508.50;5052997;28;20044;-78
2022/04/20 10:56:22;;;;;;;6.78;2.70;;;15.10;52.80;;;13.84;42.90;100502.63;5064073;28;20135;-78
2022/04/20 10:59:10;;;;;;;5.03;2.63;;;15.10;52.80;;;13.91;44.24;100499.91;5066293;28;20069;-78
2022/04/20 11:02:14;;;;;;;7.57;2.50;;;15.20;53.60;;;13.96;43.62;100502.88;5029675;28;20125;-78
2022/04/20 11:04:46;;;;;;;6.18;2.65;;;15.30;53.30;;;13.97;43.22;100490.03;5029945;28;20511;-78
2022/04/20 11:07:23;;;;;;;6.75;2.92;;;15.30;53.00;;;13.95;43.02;100487.47;5037231;28;20498;-78
2022/04/20 11:10:05;;;;;;;4.45;2.50;;;15.20;52.10;;;13.95;42.72;100478.44;5051824;28;20049;-78
2022/04/20 11:18:59;;;;;;;7.68;3.20;;;15.30;52.30;;;13.99;43.17;100474.22;5033909;28;20107;-78
2022/04/20 11:21:53;;;;;;;6.97;2.88;;;15.30;52.70;;;14.04;42.27;100471.72;5033635;28;20072;-78